ESSV/VBY METAR and TAF weather

Enter ICAO airport designator
Station Type Date Time Source
ESSV METAR 2021/05/14 07:50 UTC NOAA

ESSV 140750Z 11005KT 9999 -RA FEW022 SCT041 11/08 Q1004


Station Type Date Time Source
ESSV Decoded METAR 2021/05/14 07:50 UTC NOAA

Visby Flygplats, Sweden (ESSV) 57-40N 018-21E 47M
May 14, 2021 - 03:50 AM EDT / 2021.05.14 0750 UTC
Wind: from the ESE (110 degrees) at 6 MPH (5 KT):0
Visibility: greater than 7 mile(s):0
Sky conditions: partly cloudy
Weather: light rain
Temperature: 51 F (11 C)
Dew Point: 46 F (8 C)
Relative Humidity: 81%
Pressure (altimeter): 29.65 in. Hg (1004 hPa)
ob: ESSV 140750Z 11005KT 9999 -RA FEW022 SCT041 11/08 Q1004
cycle: 8

Station Type Date Time Source
ESSV TAF 2017/09/20 09:39 UTC NOAA

TAF COR TAF COR ESSV 200840Z 2009/2021 10005KT 9999 BKN030 PROB40 2009/2016 4000 TS SHRA BKN015CB

Example: see airport list